sensor_id;sensor_type;location;lat;lon;timestamp;P1;durP1;ratioP1;P2;durP2;ratioP2
32918;SDS011;19280;42.646;21.150;2022-09-13T00:00:42;19.02;;;9.80;;
32918;SDS011;19280;42.646;21.150;2022-09-13T00:03:10;19.13;;;10.35;;
32918;SDS011;19280;42.646;21.150;2022-09-13T00:05:37;20.70;;;11.27;;
32918;SDS011;19280;42.646;21.150;2022-09-13T00:08:05;16.70;;;9.60;;
32918;SDS011;19280;42.646;21.150;2022-09-13T00:10:35;15.60;;;9.32;;
32918;SDS011;19280;42.646;21.150;2022-09-13T00:13:06;20.67;;;10.73;;
32918;SDS011;19280;42.646;21.150;2022-09-13T00:15:35;16.33;;;9.77;;
32918;SDS011;19280;42.646;21.150;2022-09-13T00:18:02;24.58;;;10.27;;
32918;SDS011;19280;42.646;21.150;2022-09-13T00:20:29;14.68;;;8.77;;
32918;SDS011;19280;42.646;21.150;2022-09-13T00:22:55;16.27;;;5.28;;
32918;SDS011;19280;42.646;21.150;2022-09-13T00:25:22;11.35;;;7.07;;
32918;SDS011;19280;42.646;21.150;2022-09-13T00:27:49;17.73;;;8.60;;
32918;SDS011;19280;42.646;21.150;2022-09-13T00:30:16;17.48;;;5.80;;
32918;SDS011;19280;42.646;21.150;2022-09-13T00:32:42;7.80;;;4.85;;
32918;SDS011;19280;42.646;21.150;2022-09-13T00:35:09;13.48;;;4.60;;
32918;SDS011;19280;42.646;21.150;2022-09-13T00:37:36;14.77;;;5.28;;
32918;SDS011;19280;42.646;21.150;2022-09-13T00:40:04;8.10;;;4.78;;
32918;SDS011;19280;42.646;21.150;2022-09-13T00:42:31;11.95;;;5.07;;
32918;SDS011;19280;42.646;21.150;2022-09-13T00:50:32;12.63;;;6.38;;
32918;SDS011;19280;42.646;21.150;2022-09-13T00:52:58;16.52;;;6.93;;
32918;SDS011;19280;42.646;21.150;2022-09-13T00:55:28;22.50;;;7.00;;
32918;SDS011;19280;42.646;21.150;2022-09-13T00:57:58;10.90;;;6.18;;
32918;SDS011;19280;42.646;21.150;2022-09-13T01:00:26;14.15;;;6.18;;
32918;SDS011;19280;42.646;21.150;2022-09-13T01:02:56;15.75;;;6.28;;
32918;SDS011;19280;42.646;21.150;2022-09-13T01:05:26;10.95;;;5.60;;
32918;SDS011;19280;42.646;21.150;2022-09-13T01:07:54;12.68;;;6.70;;
32918;SDS011;19280;42.646;21.150;2022-09-13T01:10:21;15.82;;;6.63;;
32918;SDS011;19280;42.646;21.150;2022-09-13T01:15:48;16.02;;;9.60;;
32918;SDS011;19280;42.646;21.150;2022-09-13T01:18:15;25.08;;;9.98;;
32918;SDS011;19280;42.646;21.150;2022-09-13T01:34:27;19.27;;;11.27;;
32918;SDS011;19280;42.646;21.150;2022-09-13T01:57:14;22.63;;;11.63;;
32918;SDS011;19280;42.646;21.150;2022-09-13T02:02:25;16.23;;;11.88;;
32918;SDS011;19280;42.646;21.150;2022-09-13T02:04:54;30.95;;;12.82;;
32918;SDS011;19280;42.646;21.150;2022-09-13T02:07:28;21.00;;;12.85;;
32918;SDS011;19280;42.646;21.150;2022-09-13T02:10:05;23.15;;;12.20;;
32918;SDS011;19280;42.646;21.150;2022-09-13T02:12:33;21.45;;;12.52;;
32918;SDS011;19280;42.646;21.150;2022-09-13T02:15:13;20.63;;;13.07;;
32918;SDS011;19280;42.646;21.150;2022-09-13T02:18:27;21.00;;;14.50;;
32918;SDS011;19280;42.646;21.150;2022-09-13T02:20:32;26.90;;;13.68;;
32918;SDS011;19280;42.646;21.150;2022-09-13T02:23:02;27.80;;;14.95;;
32918;SDS011;19280;42.646;21.150;2022-09-13T02:25:30;27.48;;;13.75;;
32918;SDS011;19280;42.646;21.150;2022-09-13T02:27:59;19.60;;;13.50;;
32918;SDS011;19280;42.646;21.150;2022-09-13T02:30:29;24.23;;;14.10;;
32918;SDS011;19280;42.646;21.150;2022-09-13T02:37:58;18.73;;;11.25;;
32918;SDS011;19280;42.646;21.150;2022-09-13T02:40:29;19.33;;;11.93;;
32918;SDS011;19280;42.646;21.150;2022-09-13T02:43:00;15.00;;;11.02;;
32918;SDS011;19280;42.646;21.150;2022-09-13T02:45:32;24.30;;;11.48;;
32918;SDS011;19280;42.646;21.150;2022-09-13T02:48:09;23.42;;;8.55;;
32918;SDS011;19280;42.646;21.150;2022-09-13T02:58:45;17.48;;;8.43;;
32918;SDS011;19280;42.646;21.150;2022-09-13T03:01:16;14.52;;;9.35;;
32918;SDS011;19280;42.646;21.150;2022-09-13T03:03:43;19.48;;;7.93;;
32918;SDS011;19280;42.646;21.150;2022-09-13T03:06:10;13.13;;;8.48;;
32918;SDS011;19280;42.646;21.150;2022-09-13T03:08:37;14.88;;;7.97;;
32918;SDS011;19280;42.646;21.150;2022-09-13T03:11:10;13.15;;;8.70;;
32918;SDS011;19280;42.646;21.150;2022-09-13T03:13:52;19.55;;;9.52;;
32918;SDS011;19280;42.646;21.150;2022-09-13T03:19:07;13.63;;;9.65;;
32918;SDS011;19280;42.646;21.150;2022-09-13T03:22:00;17.85;;;8.77;;
32918;SDS011;19280;42.646;21.150;2022-09-13T03:37:52;9.63;;;6.13;;
32918;SDS011;19280;42.646;21.150;2022-09-13T03:40:24;8.23;;;5.32;;
32918;SDS011;19280;42.646;21.150;2022-09-13T03:43:00;7.50;;;5.93;;
32918;SDS011;19280;42.646;21.150;2022-09-13T03:45:30;7.05;;;5.85;;
32918;SDS011;19280;42.646;21.150;2022-09-13T03:47:59;8.88;;;5.90;;
32918;SDS011;19280;42.646;21.150;2022-09-13T03:50:27;7.97;;;5.75;;
32918;SDS011;19280;42.646;21.150;2022-09-13T03:52:56;13.75;;;7.03;;
32918;SDS011;19280;42.646;21.150;2022-09-13T03:55:24;10.38;;;6.38;;
32918;SDS011;19280;42.646;21.150;2022-09-13T03:57:51;9.38;;;6.55;;
32918;SDS011;19280;42.646;21.150;2022-09-13T04:00:18;11.23;;;6.20;;
32918;SDS011;19280;42.646;21.150;2022-09-13T04:02:45;12.48;;;5.80;;
32918;SDS011;19280;42.646;21.150;2022-09-13T04:05:12;9.63;;;5.72;;
32918;SDS011;19280;42.646;21.150;2022-09-13T04:07:39;9.73;;;5.32;;
32918;SDS011;19280;42.646;21.150;2022-09-13T04:10:06;9.35;;;5.22;;
32918;SDS011;19280;42.646;21.150;2022-09-13T04:12:33;8.50;;;5.05;;
32918;SDS011;19280;42.646;21.150;2022-09-13T04:15:00;10.68;;;5.68;;
32918;SDS011;19280;42.646;21.150;2022-09-13T04:17:27;9.77;;;5.25;;
32918;SDS011;19280;42.646;21.150;2022-09-13T04:19:54;11.85;;;6.00;;
32918;SDS011;19280;42.646;21.150;2022-09-13T04:22:20;15.15;;;5.65;;
32918;SDS011;19280;42.646;21.150;2022-09-13T04:24:47;9.75;;;5.55;;
32918;SDS011;19280;42.646;21.150;2022-09-13T04:27:14;8.90;;;5.70;;
32918;SDS011;19280;42.646;21.150;2022-09-13T04:29:40;9.90;;;5.63;;
32918;SDS011;19280;42.646;21.150;2022-09-13T04:32:07;8.20;;;5.50;;
32918;SDS011;19280;42.646;21.150;2022-09-13T04:34:35;9.55;;;5.63;;
32918;SDS011;19280;42.646;21.150;2022-09-13T04:37:02;9.20;;;6.13;;
32918;SDS011;19280;42.646;21.150;2022-09-13T04:39:28;8.57;;;5.20;;
32918;SDS011;19280;42.646;21.150;2022-09-13T04:41:55;7.38;;;5.32;;
32918;SDS011;19280;42.646;21.150;2022-09-13T04:44:22;8.65;;;5.40;;
32918;SDS011;19280;42.646;21.150;2022-09-13T04:46:49;9.15;;;4.65;;
32918;SDS011;19280;42.646;21.150;2022-09-13T04:49:16;9.85;;;5.00;;
32918;SDS011;19280;42.646;21.150;2022-09-13T04:51:44;9.27;;;5.10;;
32918;SDS011;19280;42.646;21.150;2022-09-13T04:54:11;14.13;;;4.93;;
32918;SDS011;19280;42.646;21.150;2022-09-13T04:56:39;10.70;;;4.72;;
32918;SDS011;19280;42.646;21.150;2022-09-13T04:59:05;10.63;;;5.10;;
32918;SDS011;19280;42.646;21.150;2022-09-13T05:01:32;8.20;;;4.47;;
32918;SDS011;19280;42.646;21.150;2022-09-13T05:03:59;7.72;;;4.93;;
32918;SDS011;19280;42.646;21.150;2022-09-13T05:06:27;9.27;;;4.80;;
32918;SDS011;19280;42.646;21.150;2022-09-13T05:08:55;9.68;;;4.50;;
32918;SDS011;19280;42.646;21.150;2022-09-13T05:11:22;13.13;;;4.43;;
32918;SDS011;19280;42.646;21.150;2022-09-13T05:13:49;7.95;;;4.20;;
32918;SDS011;19280;42.646;21.150;2022-09-13T05:16:20;12.02;;;3.92;;
32918;SDS011;19280;42.646;21.150;2022-09-13T05:18:47;5.10;;;3.22;;
32918;SDS011;19280;42.646;21.150;2022-09-13T05:21:14;5.68;;;3.30;;
32918;SDS011;19280;42.646;21.150;2022-09-13T05:23:41;6.63;;;3.33;;
32918;SDS011;19280;42.646;21.150;2022-09-13T05:26:08;9.75;;;3.00;;
32918;SDS011;19280;42.646;21.150;2022-09-13T05:28:35;5.43;;;2.92;;
32918;SDS011;19280;42.646;21.150;2022-09-13T05:31:21;7.63;;;2.70;;
32918;SDS011;19280;42.646;21.150;2022-09-13T05:33:54;9.10;;;3.20;;
32918;SDS011;19280;42.646;21.150;2022-09-13T05:36:21;4.68;;;2.60;;
32918;SDS011;19280;42.646;21.150;2022-09-13T05:38:48;9.07;;;2.70;;
32918;SDS011;19280;42.646;21.150;2022-09-13T05:41:14;8.43;;;2.20;;
32918;SDS011;19280;42.646;21.150;2022-09-13T05:43:41;5.53;;;2.83;;
32918;SDS011;19280;42.646;21.150;2022-09-13T05:48:38;10.77;;;3.22;;
32918;SDS011;19280;42.646;21.150;2022-09-13T05:51:12;12.25;;;2.97;;
32918;SDS011;19280;42.646;21.150;2022-09-13T05:53:40;6.38;;;3.15;;
32918;SDS011;19280;42.646;21.150;2022-09-13T05:56:16;7.35;;;3.15;;
32918;SDS011;19280;42.646;21.150;2022-09-13T05:58:44;6.85;;;3.03;;
32918;SDS011;19280;42.646;21.150;2022-09-13T06:01:13;10.02;;;3.00;;
32918;SDS011;19280;42.646;21.150;2022-09-13T06:03:40;7.38;;;3.17;;
32918;SDS011;19280;42.646;21.150;2022-09-13T06:06:06;11.27;;;3.30;;
32918;SDS011;19280;42.646;21.150;2022-09-13T06:08:33;9.10;;;3.20;;
32918;SDS011;19280;42.646;21.150;2022-09-13T06:11:07;6.72;;;2.78;;
32918;SDS011;19280;42.646;21.150;2022-09-13T06:13:35;6.32;;;3.45;;
32918;SDS011;19280;42.646;21.150;2022-09-13T06:16:03;8.15;;;3.40;;
32918;SDS011;19280;42.646;21.150;2022-09-13T06:18:30;12.73;;;3.35;;
32918;SDS011;19280;42.646;21.150;2022-09-13T06:20:58;5.72;;;3.28;;
32918;SDS011;19280;42.646;21.150;2022-09-13T06:23:25;5.88;;;3.40;;
32918;SDS011;19280;42.646;21.150;2022-09-13T06:26:03;7.68;;;3.03;;
32918;SDS011;19280;42.646;21.150;2022-09-13T06:28:31;9.98;;;3.20;;
32918;SDS011;19280;42.646;21.150;2022-09-13T06:30:59;12.07;;;3.50;;
32918;SDS011;19280;42.646;21.150;2022-09-13T06:33:25;5.00;;;3.10;;
32918;SDS011;19280;42.646;21.150;2022-09-13T06:35:52;19.27;;;3.08;;
32918;SDS011;19280;42.646;21.150;2022-09-13T06:38:19;13.25;;;3.08;;
32918;SDS011;19280;42.646;21.150;2022-09-13T06:40:47;10.50;;;2.60;;
32918;SDS011;19280;42.646;21.150;2022-09-13T06:43:14;6.35;;;2.40;;
32918;SDS011;19280;42.646;21.150;2022-09-13T06:45:40;9.90;;;2.47;;
32918;SDS011;19280;42.646;21.150;2022-09-13T06:48:07;8.02;;;2.03;;
32918;SDS011;19280;42.646;21.150;2022-09-13T06:50:33;10.95;;;2.30;;
32918;SDS011;19280;42.646;21.150;2022-09-13T06:53:00;8.05;;;2.20;;
32918;SDS011;19280;42.646;21.150;2022-09-13T06:55:27;4.90;;;2.00;;
32918;SDS011;19280;42.646;21.150;2022-09-13T06:57:54;6.43;;;2.33;;
32918;SDS011;19280;42.646;21.150;2022-09-13T07:00:22;4.72;;;2.17;;
32918;SDS011;19280;42.646;21.150;2022-09-13T07:02:49;3.40;;;1.77;;
32918;SDS011;19280;42.646;21.150;2022-09-13T07:05:16;2.63;;;1.80;;
32918;SDS011;19280;42.646;21.150;2022-09-13T07:07:45;6.22;;;2.17;;
32918;SDS011;19280;42.646;21.150;2022-09-13T07:10:12;6.85;;;2.30;;
32918;SDS011;19280;42.646;21.150;2022-09-13T07:12:39;4.32;;;2.03;;
32918;SDS011;19280;42.646;21.150;2022-09-13T07:15:07;11.32;;;2.17;;
32918;SDS011;19280;42.646;21.150;2022-09-13T07:17:34;8.35;;;2.28;;
32918;SDS011;19280;42.646;21.150;2022-09-13T07:20:01;8.10;;;2.78;;
32918;SDS011;19280;42.646;21.150;2022-09-13T07:22:30;6.10;;;2.40;;
32918;SDS011;19280;42.646;21.150;2022-09-13T07:24:57;7.20;;;2.28;;
32918;SDS011;19280;42.646;21.150;2022-09-13T07:27:24;7.70;;;2.05;;
32918;SDS011;19280;42.646;21.150;2022-09-13T07:29:52;6.78;;;2.13;;
32918;SDS011;19280;42.646;21.150;2022-09-13T07:32:18;4.60;;;1.98;;
32918;SDS011;19280;42.646;21.150;2022-09-13T07:34:45;3.08;;;1.60;;
32918;SDS011;19280;42.646;21.150;2022-09-13T07:37:12;7.13;;;1.90;;
32918;SDS011;19280;42.646;21.150;2022-09-13T07:39:39;2.92;;;2.00;;
32918;SDS011;19280;42.646;21.150;2022-09-13T07:42:05;4.45;;;2.10;;
32918;SDS011;19280;42.646;21.150;2022-09-13T07:44:32;3.13;;;2.10;;
32918;SDS011;19280;42.646;21.150;2022-09-13T07:46:59;3.45;;;1.90;;
32918;SDS011;19280;42.646;21.150;2022-09-13T07:49:25;15.63;;;2.50;;
32918;SDS011;19280;42.646;21.150;2022-09-13T07:51:52;3.20;;;1.60;;
32918;SDS011;19280;42.646;21.150;2022-09-13T07:54:19;4.43;;;1.88;;
32918;SDS011;19280;42.646;21.150;2022-09-13T07:56:45;5.82;;;2.10;;
32918;SDS011;19280;42.646;21.150;2022-09-13T07:59:15;3.63;;;1.90;;
32918;SDS011;19280;42.646;21.150;2022-09-13T08:01:45;6.80;;;2.42;;
32918;SDS011;19280;42.646;21.150;2022-09-13T08:04:14;7.38;;;2.05;;
32918;SDS011;19280;42.646;21.150;2022-09-13T08:06:44;10.48;;;2.00;;
32918;SDS011;19280;42.646;21.150;2022-09-13T08:09:11;5.53;;;2.10;;
32918;SDS011;19280;42.646;21.150;2022-09-13T08:11:39;4.95;;;2.10;;
32918;SDS011;19280;42.646;21.150;2022-09-13T08:14:06;4.35;;;2.20;;
32918;SDS011;19280;42.646;21.150;2022-09-13T08:16:34;6.32;;;2.35;;
32918;SDS011;19280;42.646;21.150;2022-09-13T08:19:01;3.75;;;2.20;;
32918;SDS011;19280;42.646;21.150;2022-09-13T08:21:31;7.13;;;2.40;;
32918;SDS011;19280;42.646;21.150;2022-09-13T08:23:58;3.72;;;2.55;;
32918;SDS011;19280;42.646;21.150;2022-09-13T08:26:28;9.15;;;2.28;;
32918;SDS011;19280;42.646;21.150;2022-09-13T08:28:59;7.17;;;2.23;;
32918;SDS011;19280;42.646;21.150;2022-09-13T08:31:26;3.25;;;2.70;;
32918;SDS011;19280;42.646;21.150;2022-09-13T08:33:53;5.68;;;2.30;;
32918;SDS011;19280;42.646;21.150;2022-09-13T08:36:20;4.32;;;2.35;;
32918;SDS011;19280;42.646;21.150;2022-09-13T08:38:52;3.28;;;2.50;;
32918;SDS011;19280;42.646;21.150;2022-09-13T08:44:02;2.80;;;2.50;;
32918;SDS011;19280;42.646;21.150;2022-09-13T08:46:40;5.53;;;2.47;;
32918;SDS011;19280;42.646;21.150;2022-09-13T08:49:10;7.00;;;3.25;;
32918;SDS011;19280;42.646;21.150;2022-09-13T08:52:02;4.65;;;2.50;;
32918;SDS011;19280;42.646;21.150;2022-09-13T08:54:26;3.55;;;2.20;;
32918;SDS011;19280;42.646;21.150;2022-09-13T08:59:24;2.20;;;1.77;;
32918;SDS011;19280;42.646;21.150;2022-09-13T09:04:40;5.75;;;2.50;;
32918;SDS011;19280;42.646;21.150;2022-09-13T09:07:12;6.72;;;2.63;;
32918;SDS011;19280;42.646;21.150;2022-09-13T09:09:49;3.78;;;1.98;;
32918;SDS011;19280;42.646;21.150;2022-09-13T09:17:48;7.05;;;2.15;;
32918;SDS011;19280;42.646;21.150;2022-09-13T09:20:27;7.10;;;2.10;;
32918;SDS011;19280;42.646;21.150;2022-09-13T09:22:58;5.25;;;2.10;;
32918;SDS011;19280;42.646;21.150;2022-09-13T09:25:27;4.90;;;2.20;;
32918;SDS011;19280;42.646;21.150;2022-09-13T09:27:53;3.72;;;2.45;;
32918;SDS011;19280;42.646;21.150;2022-09-13T09:30:21;2.00;;;1.80;;
32918;SDS011;19280;42.646;21.150;2022-09-13T09:32:56;2.78;;;1.80;;
32918;SDS011;19280;42.646;21.150;2022-09-13T09:35:40;2.78;;;2.13;;
32918;SDS011;19280;42.646;21.150;2022-09-13T09:38:19;5.07;;;2.30;;
32918;SDS011;19280;42.646;21.150;2022-09-13T09:40:47;4.50;;;1.88;;
32918;SDS011;19280;42.646;21.150;2022-09-13T09:43:16;3.15;;;1.98;;
32918;SDS011;19280;42.646;21.150;2022-09-13T09:48:13;3.80;;;2.35;;
32918;SDS011;19280;42.646;21.150;2022-09-13T09:50:43;6.35;;;1.88;;
32918;SDS011;19280;42.646;21.150;2022-09-13T09:53:11;2.35;;;1.60;;
32918;SDS011;19280;42.646;21.150;2022-09-13T09:58:16;11.45;;;1.88;;
32918;SDS011;19280;42.646;21.150;2022-09-13T10:00:51;4.05;;;1.98;;
32918;SDS011;19280;42.646;21.150;2022-09-13T10:03:20;5.20;;;2.53;;
32918;SDS011;19280;42.646;21.150;2022-09-13T10:05:49;3.28;;;2.35;;
32918;SDS011;19280;42.646;21.150;2022-09-13T10:08:27;4.00;;;2.17;;
32918;SDS011;19280;42.646;21.150;2022-09-13T10:10:56;5.32;;;2.80;;
32918;SDS011;19280;42.646;21.150;2022-09-13T10:13:26;2.07;;;1.87;;
32918;SDS011;19280;42.646;21.150;2022-09-13T10:15:54;3.20;;;2.05;;
32918;SDS011;19280;42.646;21.150;2022-09-13T10:18:23;7.88;;;1.90;;
32918;SDS011;19280;42.646;21.150;2022-09-13T10:21:04;2.60;;;1.75;;
32918;SDS011;19280;42.646;21.150;2022-09-13T10:23:34;3.63;;;1.97;;
32918;SDS011;19280;42.646;21.150;2022-09-13T10:28:29;2.67;;;1.80;;
32918;SDS011;19280;42.646;21.150;2022-09-13T10:30:57;2.15;;;1.83;;
32918;SDS011;19280;42.646;21.150;2022-09-13T10:33:50;5.55;;;1.80;;
32918;SDS011;19280;42.646;21.150;2022-09-13T10:36:21;3.10;;;2.00;;
32918;SDS011;19280;42.646;21.150;2022-09-13T10:38:56;9.50;;;1.85;;
32918;SDS011;19280;42.646;21.150;2022-09-13T10:41:25;4.78;;;1.90;;
32918;SDS011;19280;42.646;21.150;2022-09-13T10:44:00;3.45;;;1.63;;
32918;SDS011;19280;42.646;21.150;2022-09-13T10:46:28;3.85;;;1.95;;
32918;SDS011;19280;42.646;21.150;2022-09-13T10:48:56;6.10;;;2.60;;
32918;SDS011;19280;42.646;21.150;2022-09-13T10:56:40;3.33;;;2.03;;
32918;SDS011;19280;42.646;21.150;2022-09-13T11:09:47;3.95;;;1.73;;
32918;SDS011;19280;42.646;21.150;2022-09-13T11:12:18;4.63;;;1.95;;
32918;SDS011;19280;42.646;21.150;2022-09-13T11:25:53;3.60;;;1.90;;
32918;SDS011;19280;42.646;21.150;2022-09-13T11:31:08;3.45;;;1.80;;
32918;SDS011;19280;42.646;21.150;2022-09-13T11:33:44;2.25;;;1.70;;
32918;SDS011;19280;42.646;21.150;2022-09-13T11:49:19;2.83;;;2.13;;
32918;SDS011;19280;42.646;21.150;2022-09-13T11:52:02;3.72;;;2.10;;
32918;SDS011;19280;42.646;21.150;2022-09-13T11:57:42;4.70;;;2.22;;
32918;SDS011;19280;42.646;21.150;2022-09-13T12:02:41;5.90;;;2.05;;
32918;SDS011;19280;42.646;21.150;2022-09-13T12:05:31;5.70;;;2.10;;
32918;SDS011;19280;42.646;21.150;2022-09-13T12:10:45;9.40;;;1.80;;
32918;SDS011;19280;42.646;21.150;2022-09-13T12:13:19;2.55;;;1.80;;
32918;SDS011;19280;42.646;21.150;2022-09-13T12:15:48;4.68;;;1.83;;
32918;SDS011;19280;42.646;21.150;2022-09-13T12:18:23;5.20;;;1.63;;
32918;SDS011;19280;42.646;21.150;2022-09-13T12:20:52;4.28;;;1.92;;
32918;SDS011;19280;42.646;21.150;2022-09-13T12:23:22;4.75;;;2.00;;
32918;SDS011;19280;42.646;21.150;2022-09-13T12:25:55;5.90;;;2.88;;
32918;SDS011;19280;42.646;21.150;2022-09-13T12:28:25;6.63;;;2.17;;
32918;SDS011;19280;42.646;21.150;2022-09-13T12:30:58;3.55;;;1.98;;
32918;SDS011;19280;42.646;21.150;2022-09-13T12:33:26;4.13;;;1.88;;
32918;SDS011;19280;42.646;21.150;2022-09-13T12:36:39;5.30;;;2.20;;
32918;SDS011;19280;42.646;21.150;2022-09-13T13:05:27;5.97;;;2.58;;
32918;SDS011;19280;42.646;21.150;2022-09-13T13:10:32;6.45;;;2.78;;
32918;SDS011;19280;42.646;21.150;2022-09-13T13:18:21;4.28;;;2.15;;
32918;SDS011;19280;42.646;21.150;2022-09-13T13:34:01;4.57;;;2.10;;
32918;SDS011;19280;42.646;21.150;2022-09-13T13:36:31;7.43;;;2.10;;
32918;SDS011;19280;42.646;21.150;2022-09-13T13:39:11;5.22;;;1.92;;
32918;SDS011;19280;42.646;21.150;2022-09-13T13:41:42;5.60;;;2.65;;
32918;SDS011;19280;42.646;21.150;2022-09-13T13:46:44;2.47;;;1.95;;
32918;SDS011;19280;42.646;21.150;2022-09-13T13:59:44;2.78;;;1.83;;
32918;SDS011;19280;42.646;21.150;2022-09-13T14:02:11;2.08;;;1.63;;
32918;SDS011;19280;42.646;21.150;2022-09-13T14:04:42;6.70;;;2.00;;
32918;SDS011;19280;42.646;21.150;2022-09-13T14:10:00;3.38;;;1.90;;
32918;SDS011;19280;42.646;21.150;2022-09-13T14:18:25;3.33;;;1.88;;
32918;SDS011;19280;42.646;21.150;2022-09-13T14:23:43;3.03;;;1.80;;
32918;SDS011;19280;42.646;21.150;2022-09-13T14:26:10;3.90;;;1.83;;
32918;SDS011;19280;42.646;21.150;2022-09-13T14:28:37;4.13;;;1.80;;
32918;SDS011;19280;42.646;21.150;2022-09-13T14:31:05;5.43;;;1.70;;
32918;SDS011;19280;42.646;21.150;2022-09-13T14:33:33;7.97;;;1.88;;
32918;SDS011;19280;42.646;21.150;2022-09-13T14:36:06;3.58;;;2.00;;
32918;SDS011;19280;42.646;21.150;2022-09-13T14:38:34;4.32;;;2.33;;
32918;SDS011;19280;42.646;21.150;2022-09-13T14:41:14;13.65;;;2.78;;
32918;SDS011;19280;42.646;21.150;2022-09-13T14:43:42;5.93;;;2.05;;
32918;SDS011;19280;42.646;21.150;2022-09-13T14:46:15;2.72;;;1.52;;
32918;SDS011;19280;42.646;21.150;2022-09-13T14:48:50;7.72;;;1.75;;
32918;SDS011;19280;42.646;21.150;2022-09-13T14:51:20;4.28;;;1.75;;
32918;SDS011;19280;42.646;21.150;2022-09-13T14:53:49;5.30;;;1.70;;
32918;SDS011;19280;42.646;21.150;2022-09-13T14:56:40;1.88;;;1.40;;
32918;SDS011;19280;42.646;21.150;2022-09-13T14:59:05;2.63;;;1.42;;
32918;SDS011;19280;42.646;21.150;2022-09-13T15:01:37;8.52;;;1.83;;
32918;SDS011;19280;42.646;21.150;2022-09-13T15:04:04;2.78;;;1.80;;
32918;SDS011;19280;42.646;21.150;2022-09-13T15:06:40;3.65;;;1.65;;
32918;SDS011;19280;42.646;21.150;2022-09-13T15:09:14;1.98;;;1.50;;
32918;SDS011;19280;42.646;21.150;2022-09-13T15:14:35;4.03;;;1.85;;
32918;SDS011;19280;42.646;21.150;2022-09-13T15:17:08;2.38;;;1.52;;
32918;SDS011;19280;42.646;21.150;2022-09-13T15:22:04;4.70;;;1.75;;
32918;SDS011;19280;42.646;21.150;2022-09-13T15:24:32;3.75;;;1.90;;
32918;SDS011;19280;42.646;21.150;2022-09-13T15:27:04;5.55;;;2.10;;
32918;SDS011;19280;42.646;21.150;2022-09-13T15:29:32;7.90;;;1.80;;
32918;SDS011;19280;42.646;21.150;2022-09-13T15:32:00;7.25;;;3.00;;
32918;SDS011;19280;42.646;21.150;2022-09-13T15:34:28;9.52;;;4.47;;
32918;SDS011;19280;42.646;21.150;2022-09-13T15:39:26;5.35;;;2.08;;
32918;SDS011;19280;42.646;21.150;2022-09-13T15:41:53;3.75;;;1.80;;
32918;SDS011;19280;42.646;21.150;2022-09-13T15:44:21;6.35;;;1.63;;
32918;SDS011;19280;42.646;21.150;2022-09-13T15:49:17;11.52;;;3.13;;
32918;SDS011;19280;42.646;21.150;2022-09-13T15:51:45;8.77;;;2.80;;
32918;SDS011;19280;42.646;21.150;2022-09-13T15:54:13;6.03;;;2.95;;
32918;SDS011;19280;42.646;21.150;2022-09-13T15:56:41;9.68;;;3.30;;
32918;SDS011;19280;42.646;21.150;2022-09-13T15:59:15;3.97;;;2.55;;
32918;SDS011;19280;42.646;21.150;2022-09-13T16:01:42;5.93;;;2.90;;
32918;SDS011;19280;42.646;21.150;2022-09-13T16:04:10;5.97;;;2.53;;
32918;SDS011;19280;42.646;21.150;2022-09-13T16:06:37;6.97;;;2.67;;
32918;SDS011;19280;42.646;21.150;2022-09-13T16:09:15;7.25;;;2.33;;
32918;SDS011;19280;42.646;21.150;2022-09-13T16:11:42;12.20;;;3.20;;
32918;SDS011;19280;42.646;21.150;2022-09-13T16:14:09;7.22;;;1.73;;
32918;SDS011;19280;42.646;21.150;2022-09-13T16:16:36;4.85;;;2.17;;
32918;SDS011;19280;42.646;21.150;2022-09-13T16:19:03;5.93;;;2.15;;
32918;SDS011;19280;42.646;21.150;2022-09-13T16:21:29;4.30;;;1.90;;
32918;SDS011;19280;42.646;21.150;2022-09-13T16:23:56;4.22;;;2.15;;
32918;SDS011;19280;42.646;21.150;2022-09-13T16:26:32;6.75;;;2.00;;
32918;SDS011;19280;42.646;21.150;2022-09-13T16:28:59;8.70;;;3.33;;
32918;SDS011;19280;42.646;21.150;2022-09-13T16:31:26;8.63;;;3.45;;
32918;SDS011;19280;42.646;21.150;2022-09-13T16:33:53;17.08;;;2.95;;
32918;SDS011;19280;42.646;21.150;2022-09-13T16:36:20;3.00;;;1.80;;
32918;SDS011;19280;42.646;21.150;2022-09-13T16:38:46;6.13;;;2.60;;
32918;SDS011;19280;42.646;21.150;2022-09-13T16:41:13;5.57;;;2.40;;
32918;SDS011;19280;42.646;21.150;2022-09-13T16:43:41;7.47;;;2.28;;
32918;SDS011;19280;42.646;21.150;2022-09-13T16:46:08;3.92;;;2.28;;
32918;SDS011;19280;42.646;21.150;2022-09-13T16:48:34;3.92;;;2.10;;
32918;SDS011;19280;42.646;21.150;2022-09-13T16:51:02;3.88;;;2.40;;
32918;SDS011;19280;42.646;21.150;2022-09-13T16:53:30;7.32;;;2.60;;
32918;SDS011;19280;42.646;21.150;2022-09-13T16:56:08;6.90;;;2.55;;
32918;SDS011;19280;42.646;21.150;2022-09-13T16:58:37;12.63;;;4.50;;
32918;SDS011;19280;42.646;21.150;2022-09-13T17:01:05;10.48;;;3.78;;
32918;SDS011;19280;42.646;21.150;2022-09-13T17:03:34;9.63;;;4.63;;
32918;SDS011;19280;42.646;21.150;2022-09-13T17:06:02;20.30;;;5.85;;
32918;SDS011;19280;42.646;21.150;2022-09-13T17:08:30;20.17;;;5.72;;
32918;SDS011;19280;42.646;21.150;2022-09-13T17:10:58;11.75;;;5.40;;
32918;SDS011;19280;42.646;21.150;2022-09-13T17:13:25;16.40;;;4.55;;
32918;SDS011;19280;42.646;21.150;2022-09-13T17:15:51;22.58;;;6.07;;
32918;SDS011;19280;42.646;21.150;2022-09-13T17:18:18;10.82;;;5.32;;
32918;SDS011;19280;42.646;21.150;2022-09-13T17:20:45;16.17;;;5.80;;
32918;SDS011;19280;42.646;21.150;2022-09-13T17:23:12;17.17;;;5.97;;
32918;SDS011;19280;42.646;21.150;2022-09-13T17:25:40;10.63;;;6.10;;
32918;SDS011;19280;42.646;21.150;2022-09-13T17:28:11;14.80;;;6.20;;
32918;SDS011;19280;42.646;21.150;2022-09-13T17:30:38;10.75;;;5.90;;
32918;SDS011;19280;42.646;21.150;2022-09-13T17:33:05;15.35;;;6.00;;
32918;SDS011;19280;42.646;21.150;2022-09-13T17:35:33;21.27;;;6.97;;
32918;SDS011;19280;42.646;21.150;2022-09-13T17:38:00;16.23;;;7.18;;
32918;SDS011;19280;42.646;21.150;2022-09-13T17:40:28;15.45;;;7.35;;
32918;SDS011;19280;42.646;21.150;2022-09-13T17:42:55;15.85;;;7.72;;
32918;SDS011;19280;42.646;21.150;2022-09-13T17:45:22;20.30;;;8.40;;
32918;SDS011;19280;42.646;21.150;2022-09-13T17:47:51;15.52;;;7.28;;
32918;SDS011;19280;42.646;21.150;2022-09-13T17:50:18;18.33;;;7.60;;
32918;SDS011;19280;42.646;21.150;2022-09-13T17:52:44;18.67;;;8.15;;
32918;SDS011;19280;42.646;21.150;2022-09-13T17:55:11;25.08;;;10.00;;
32918;SDS011;19280;42.646;21.150;2022-09-13T17:57:38;23.77;;;12.23;;
32918;SDS011;19280;42.646;21.150;2022-09-13T18:00:06;26.17;;;13.73;;
32918;SDS011;19280;42.646;21.150;2022-09-13T18:02:35;29.90;;;14.35;;
32918;SDS011;19280;42.646;21.150;2022-09-13T18:05:02;28.17;;;11.70;;
32918;SDS011;19280;42.646;21.150;2022-09-13T18:07:28;22.33;;;10.57;;
32918;SDS011;19280;42.646;21.150;2022-09-13T18:09:55;20.95;;;8.70;;
32918;SDS011;19280;42.646;21.150;2022-09-13T18:12:22;20.40;;;7.80;;
32918;SDS011;19280;42.646;21.150;2022-09-13T18:14:48;19.50;;;9.57;;
32918;SDS011;19280;42.646;21.150;2022-09-13T18:17:15;16.02;;;9.70;;
32918;SDS011;19280;42.646;21.150;2022-09-13T18:19:42;24.88;;;11.25;;
32918;SDS011;19280;42.646;21.150;2022-09-13T18:22:09;14.60;;;6.30;;
32918;SDS011;19280;42.646;21.150;2022-09-13T18:24:37;14.65;;;4.65;;
32918;SDS011;19280;42.646;21.150;2022-09-13T18:27:03;12.75;;;4.57;;
32918;SDS011;19280;42.646;21.150;2022-09-13T18:29:30;23.05;;;7.95;;
32918;SDS011;19280;42.646;21.150;2022-09-13T18:31:57;22.58;;;9.52;;